Time;durP1;ratioP1;P1;durP2;ratioP2;P2;SDS_P1;SDS_P2;PMS_P1;PMS_P2;Temp;Humidity;BMP_temperature;BMP_pressure;BME280_temperature;BME280_humidity;BME280_pressure;Samples;Min_cycle;Max_cycle;Signal;HPM_P1;HPM_P2
2022/07/06 00:00:21;;;;;;;3.03;2.22;;;;;;;18.18;44.87;102419.25;5051299;28;20461;-66
2022/07/06 00:02:49;;;;;;;5.25;2.42;;;;;;;18.14;44.69;102415.91;5051235;28;20474;-66
2022/07/06 00:05:15;;;;;;;5.32;2.38;;;;;;;18.10;44.93;102415.28;5050561;28;20041;-66
2022/07/06 00:07:42;;;;;;;3.00;2.28;;;;;;;18.07;44.73;102420.06;5051210;28;20040;-66
2022/07/06 00:10:09;;;;;;;3.95;2.75;;;;;;;18.02;44.81;102425.00;5051156;28;20045;-64
2022/07/06 00:12:37;;;;;;;5.57;2.50;;;;;;;17.94;45.12;102422.00;5051294;28;20403;-64
2022/07/06 00:15:04;;;;;;;4.55;2.72;;;;;;;17.85;45.14;102423.59;5051097;28;20546;-65
2022/07/06 00:17:31;;;;;;;2.65;2.28;;;;;;;17.80;45.48;102425.75;5050264;28;20811;-65
2022/07/06 00:19:58;;;;;;;4.30;2.60;;;;;;;17.74;45.44;102421.66;5051016;28;20041;-65
2022/07/06 00:22:25;;;;;;;7.38;2.78;;;;;;;17.71;45.21;102423.75;5050674;28;20475;-66
2022/07/06 00:24:52;;;;;;;4.32;2.58;;;;;;;17.67;45.32;102427.69;5051139;28;20128;-65
2022/07/06 00:27:19;;;;;;;6.43;3.10;;;;;;;17.63;45.33;102427.00;5050894;28;20072;-66
2022/07/06 00:29:46;;;;;;;3.78;2.72;;;;;;;17.59;45.52;102438.22;5049728;28;20479;-65
2022/07/06 00:32:12;;;;;;;5.28;3.03;;;;;;;17.53;45.58;102439.56;5050973;28;20064;-65
2022/07/06 00:34:39;;;;;;;3.95;2.83;;;;;;;17.47;45.91;102438.19;5051096;28;20511;-65
2022/07/06 00:37:06;;;;;;;4.25;2.85;;;;;;;17.39;46.05;102428.88;5051374;28;20041;-65
2022/07/06 00:39:33;;;;;;;4.07;2.95;;;;;;;17.29;46.15;102430.53;5053044;28;20564;-66
2022/07/06 00:42:00;;;;;;;4.38;2.72;;;;;;;17.20;46.13;102429.38;5052353;28;20107;-66
2022/07/06 00:44:33;;;;;;;4.95;2.70;;;;;;;17.12;46.20;102429.94;5056672;28;20037;-65
2022/07/06 00:46:59;;;;;;;4.72;2.60;;;;;;;17.05;46.11;102428.63;5057322;28;20480;-65
2022/07/06 00:52:11;;;;;;;4.63;3.10;;;;;;;16.95;46.35;102424.84;5056598;28;20128;-65
2022/07/06 00:54:41;;;;;;;3.92;3.05;;;;;;;16.92;46.85;102424.19;5054643;28;20115;-66
2022/07/06 00:57:09;;;;;;;8.27;3.40;;;;;;;16.91;46.93;102427.91;5054111;28;20420;-65
2022/07/06 00:59:35;;;;;;;6.65;3.08;;;;;;;16.87;46.67;102429.09;5053071;28;20462;-66
2022/07/06 01:02:02;;;;;;;4.72;3.15;;;;;;;16.82;46.84;102422.16;5054131;28;20048;-66
2022/07/06 01:04:30;;;;;;;4.90;3.10;;;;;;;16.80;46.72;102431.38;5053902;28;20052;-66
2022/07/06 01:06:57;;;;;;;4.20;3.17;;;;;;;16.76;47.00;102428.03;5054309;28;20092;-66
2022/07/06 01:09:24;;;;;;;5.35;2.97;;;;;;;16.74;47.14;102431.81;5054052;28;20136;-66
2022/07/06 01:11:52;;;;;;;4.30;2.90;;;;;;;16.71;47.18;102429.34;5052817;28;20419;-66
2022/07/06 01:14:24;;;;;;;6.22;2.90;;;;;;;16.67;47.33;102428.69;5053080;28;20122;-66
2022/07/06 01:16:51;;;;;;;4.45;3.17;;;;;;;16.65;47.42;102427.03;5051895;28;20045;-66
2022/07/06 01:19:18;;;;;;;5.28;2.97;;;;;;;16.66;47.45;102426.09;5052775;28;20426;-65
2022/07/06 01:21:45;;;;;;;5.22;3.30;;;;;;;16.66;47.19;102426.94;5053800;28;20045;-65
2022/07/06 01:24:14;;;;;;;8.35;3.75;;;;;;;16.67;47.40;102422.41;5052981;28;20509;-65
2022/07/06 01:26:41;;;;;;;4.82;3.08;;;;;;;16.68;47.42;102426.84;5053627;28;20264;-64
2022/07/06 01:29:07;;;;;;;4.53;3.30;;;;;;;16.69;47.70;102431.28;5053764;28;20395;-64
2022/07/06 01:31:34;;;;;;;4.85;3.30;;;;;;;16.68;47.51;102429.56;5052405;28;20049;-65
2022/07/06 01:34:01;;;;;;;4.60;3.40;;;;;;;16.67;47.89;102428.69;5053997;28;20041;-66
2022/07/06 01:36:28;;;;;;;5.20;3.33;;;;;;;16.66;47.68;102424.25;5052292;28;20495;-66
2022/07/06 01:38:59;;;;;;;4.57;3.63;;;;;;;16.66;47.89;102428.78;5051636;28;20127;-66
2022/07/06 01:41:26;;;;;;;5.88;3.80;;;;;;;16.65;47.36;102424.31;5054352;28;20051;-66
2022/07/06 01:43:53;;;;;;;5.60;3.42;;;;;;;16.64;47.65;102422.59;5052406;28;20049;-65
2022/07/06 01:46:20;;;;;;;4.63;3.25;;;;;;;16.61;47.78;102420.97;5051933;28;20033;-65
2022/07/06 01:48:47;;;;;;;6.95;3.70;;;;;;;16.58;47.59;102426.59;5052303;28;20044;-65
2022/07/06 01:51:14;;;;;;;5.43;3.58;;;;;;;16.52;47.61;102425.19;5051791;28;20051;-65
2022/07/06 01:53:46;;;;;;;3.88;3.47;;;;;;;16.46;47.93;102424.75;5051238;28;20056;-66
2022/07/06 01:56:15;;;;;;;4.82;3.45;;;;;;;16.39;47.33;102424.34;5051905;28;20139;-65
2022/07/06 01:58:45;;;;;;;3.95;3.25;;;;;;;16.31;47.85;102423.09;5051985;28;20102;-65
2022/07/06 02:01:19;;;;;;;5.05;3.42;;;;;;;16.24;47.67;102425.38;5053669;28;20041;-65
2022/07/06 02:03:47;;;;;;;4.43;3.35;;;;;;;16.16;47.85;102417.78;5051811;28;20068;-65
2022/07/06 02:06:14;;;;;;;4.15;3.50;;;;;;;16.13;48.05;102420.69;5051921;28;20041;-65
2022/07/06 02:08:43;;;;;;;12.95;4.22;;;;;;;16.10;48.41;102422.75;5051876;28;20076;-65
2022/07/06 02:11:10;;;;;;;4.45;3.20;;;;;;;16.08;48.11;102422.00;5051915;28;20064;-65
2022/07/06 02:13:39;;;;;;;4.68;3.60;;;;;;;16.04;48.40;102417.75;5051728;28;20465;-65
2022/07/06 02:16:09;;;;;;;6.13;3.85;;;;;;;16.01;48.33;102417.97;5051362;28;20582;-65
2022/07/06 02:18:36;;;;;;;5.57;3.60;;;;;;;15.99;48.52;102422.63;5051475;28;20306;-64
2022/07/06 02:21:04;;;;;;;6.72;3.67;;;;;;;16.02;48.55;102427.84;5052925;28;20492;-65
2022/07/06 02:23:31;;;;;;;5.10;3.58;;;;;;;16.02;48.75;102419.72;5052295;28;20041;-65
2022/07/06 02:25:58;;;;;;;4.93;3.80;;;;;;;16.01;48.70;102426.97;5051210;28;20037;-65
2022/07/06 02:28:25;;;;;;;6.82;3.92;;;;;;;16.02;48.79;102426.00;5051519;28;20140;-66
2022/07/06 02:30:52;;;;;;;6.25;4.13;;;;;;;16.01;48.69;102429.69;5053109;28;20041;-65
2022/07/06 02:33:23;;;;;;;5.45;4.28;;;;;;;15.97;48.77;102430.00;5051372;28;20040;-65
2022/07/06 02:35:49;;;;;;;5.97;3.45;;;;;;;15.91;48.68;102427.72;5051186;28;20041;-65
2022/07/06 02:38:16;;;;;;;11.15;4.10;;;;;;;15.87;49.02;102422.50;5052647;28;20045;-65
2022/07/06 02:40:43;;;;;;;8.60;4.32;;;;;;;15.83;48.72;102426.41;5051392;28;20037;-65
2022/07/06 02:43:10;;;;;;;5.53;3.85;;;;;;;15.81;48.75;102422.06;5051592;28;20029;-65
2022/07/06 02:45:38;;;;;;;8.85;4.47;;;;;;;15.76;49.08;102424.22;5051574;28;20057;-65
2022/07/06 02:48:05;;;;;;;5.32;4.07;;;;;;;15.75;49.20;102428.75;5053247;28;20052;-66
2022/07/06 02:50:33;;;;;;;9.23;4.63;;;;;;;15.74;49.30;102418.91;5051557;28;20045;-66
2022/07/06 02:53:04;;;;;;;4.85;4.00;;;;;;;15.72;49.30;102422.69;5051910;28;20072;-66
2022/07/06 02:55:31;;;;;;;5.22;3.95;;;;;;;15.70;49.02;102424.63;5051946;28;20037;-65
2022/07/06 02:57:58;;;;;;;6.43;3.83;;;;;;;15.67;49.31;102427.53;5052046;28;20041;-66
2022/07/06 03:00:25;;;;;;;4.45;3.25;;;;;;;15.63;49.01;102432.28;5050404;28;20037;-66
2022/07/06 03:02:54;;;;;;;5.13;3.40;;;;;;;15.57;49.23;102425.41;5050460;28;20045;-66
2022/07/06 03:05:22;;;;;;;5.93;3.65;;;;;;;15.49;49.31;102427.75;5050382;28;20044;-66
2022/07/06 03:07:49;;;;;;;5.72;4.25;;;;;;;15.43;49.19;102428.16;5050783;28;20139;-66
2022/07/06 03:10:16;;;;;;;4.82;3.78;;;;;;;15.36;49.65;102434.94;5050815;28;20049;-66
2022/07/06 03:12:44;;;;;;;7.63;4.15;;;;;;;15.32;49.63;102441.53;5050619;28;20052;-66
2022/07/06 03:15:12;;;;;;;7.88;3.83;;;;;;;15.29;49.80;102435.44;5050031;28;20041;-66
2022/07/06 03:17:41;;;;;;;7.65;4.80;;;;;;;15.26;49.96;102437.38;5050374;28;20047;-66
2022/07/06 03:20:10;;;;;;;4.63;4.07;;;;;;;15.26;49.56;102442.78;5050719;28;20041;-65
2022/07/06 03:22:42;;;;;;;5.22;4.28;;;;;;;15.30;50.19;102446.16;5050678;28;20048;-66
2022/07/06 03:25:11;;;;;;;5.32;3.92;;;;;;;15.34;50.04;102436.00;5050420;28;20037;-65
2022/07/06 03:27:39;;;;;;;6.85;3.70;;;;;;;15.37;50.08;102433.97;5049895;28;20083;-66
2022/07/06 03:30:07;;;;;;;5.82;4.40;;;;;;;15.40;49.91;102438.31;5049929;28;20075;-66
2022/07/06 03:32:44;;;;;;;6.18;3.90;;;;;;;15.43;50.08;102438.09;5050434;28;20119;-66
2022/07/06 03:35:11;;;;;;;6.15;4.28;;;;;;;15.40;49.91;102444.59;5033771;28;20049;-66
2022/07/06 03:37:40;;;;;;;5.47;3.95;;;;;;;15.38;50.27;102441.13;5050347;28;20045;-66
2022/07/06 03:40:07;;;;;;;6.88;4.32;;;;;;;15.35;50.20;102446.75;5051097;28;20316;-66
2022/07/06 03:42:36;;;;;;;6.85;4.68;;;;;;;15.32;50.11;102446.94;5051696;28;20029;-66
2022/07/06 03:45:06;;;;;;;4.97;3.90;;;;;;;15.30;50.05;102445.31;5050248;28;20037;-66
2022/07/06 03:47:34;;;;;;;6.43;3.60;;;;;;;15.25;50.28;102440.19;5050320;28;20056;-66
2022/07/06 03:50:00;;;;;;;4.38;3.95;;;;;;;15.20;50.28;102443.19;5051718;28;20086;-66
2022/07/06 03:52:31;;;;;;;5.45;4.07;;;;;;;15.17;50.16;102435.28;5049556;28;20037;-67
2022/07/06 03:54:58;;;;;;;6.38;4.60;;;;;;;15.15;50.39;102437.22;5049941;28;20499;-65
2022/07/06 03:57:28;;;;;;;4.82;3.50;;;;;;;15.13;50.42;102436.44;5049872;28;20457;-65
2022/07/06 03:59:59;;;;;;;6.88;4.55;;;;;;;15.14;50.64;102443.59;5049904;28;20098;-66
2022/07/06 04:02:52;;;;;;;8.65;4.32;;;;;;;15.14;50.98;102440.03;5049988;28;20041;-66
2022/07/06 04:05:23;;;;;;;6.60;4.80;;;;;;;15.18;50.66;102438.84;5049824;28;20041;-65
2022/07/06 04:07:51;;;;;;;7.03;4.97;;;;;;;15.21;51.17;102446.78;5049747;28;20094;-65
2022/07/06 04:10:20;;;;;;;7.30;4.65;;;;;;;15.24;51.20;102436.63;5049853;28;20041;-66
2022/07/06 04:12:48;;;;;;;6.35;4.90;;;;;;;15.31;51.30;102441.63;5051117;28;20501;-66
2022/07/06 04:15:17;;;;;;;6.20;4.30;;;;;;;15.35;51.51;102438.63;5049951;28;20041;-66
2022/07/06 04:17:53;;;;;;;8.02;4.70;;;;;;;15.42;51.82;102437.25;5052060;28;20077;-67
2022/07/06 04:20:28;;;;;;;5.45;4.50;;;;;;;15.51;51.80;102435.75;5050730;28;20045;-66
2022/07/06 04:22:57;;;;;;;5.72;5.03;;;;;;;15.61;52.16;102439.66;5035216;28;20051;-66
2022/07/06 04:25:25;;;;;;;7.85;5.10;;;;;;;15.70;52.16;102433.63;5033586;28;20041;-66
2022/07/06 04:27:55;;;;;;;7.88;5.95;;;;;;;15.79;52.26;102433.00;5050982;28;20048;-66
2022/07/06 04:30:22;;;;;;;6.55;4.80;;;;;;;15.88;52.37;102435.06;5053243;28;20160;-66
2022/07/06 04:32:52;;;;;;;8.38;4.85;;;;;;;15.98;52.54;102429.91;5053639;28;20140;-66
2022/07/06 04:35:19;;;;;;;9.60;4.90;;;;;;;16.09;52.82;102429.16;5053625;28;20136;-66
2022/07/06 04:37:47;;;;;;;9.27;5.15;;;;;;;16.19;52.84;102420.28;5053717;28;20076;-66
2022/07/06 04:40:16;;;;;;;6.78;5.40;;;;;;;16.29;52.98;102425.06;5053879;28;20103;-66
2022/07/06 04:42:48;;;;;;;6.97;5.38;;;;;;;16.38;52.90;102427.16;5053132;28;20048;-66
2022/07/06 04:45:15;;;;;;;8.48;5.20;;;;;;;16.44;53.11;102424.00;5053623;28;20388;-66
2022/07/06 04:47:46;;;;;;;5.78;4.88;;;;;;;16.51;53.15;102428.00;5053294;28;20430;-67
2022/07/06 04:50:13;;;;;;;11.93;5.25;;;;;;;16.60;53.28;102431.91;5053815;28;20135;-66
2022/07/06 04:52:42;;;;;;;7.28;5.07;;;;;;;16.67;53.54;102422.41;5053586;28;20057;-66
2022/07/06 04:55:10;;;;;;;5.75;4.45;;;;;;;16.75;53.55;102428.13;5052955;28;20048;-66
2022/07/06 04:57:36;;;;;;;6.82;4.70;;;;;;;16.82;53.91;102426.72;5053432;28;20513;-66
2022/07/06 05:00:04;;;;;;;7.78;4.88;;;;;;;16.89;53.87;102425.28;5053410;28;20052;-67
2022/07/06 05:02:35;;;;;;;7.47;5.13;;;;;;;16.96;54.07;102428.44;5053338;28;20095;-68
2022/07/06 05:05:02;;;;;;;6.00;4.72;;;;;;;17.02;54.05;102431.56;5053233;28;20076;-67
2022/07/06 05:07:30;;;;;;;9.55;4.93;;;;;;;17.09;54.03;102432.88;5053060;28;20414;-67
2022/07/06 05:09:57;;;;;;;6.45;5.07;;;;;;;17.13;54.05;102428.09;5053239;28;20041;-67
2022/07/06 05:12:28;;;;;;;6.65;4.93;;;;;;;17.18;54.17;102435.91;5053340;28;20041;-68
2022/07/06 05:14:55;;;;;;;6.45;4.55;;;;;;;17.21;54.19;102427.53;5054477;28;20067;-68
2022/07/06 05:17:23;;;;;;;7.55;4.60;;;;;;;17.25;54.14;102435.31;5052986;28;20041;-66
2022/07/06 05:19:57;;;;;;;6.70;4.68;;;;;;;17.27;54.25;102443.34;5052923;28;20037;-66
2022/07/06 05:22:29;;;;;;;10.57;3.95;;;;;;;17.30;54.03;102443.13;5053409;28;20087;-66
2022/07/06 05:24:56;;;;;;;6.53;4.13;;;;;;;17.34;54.28;102450.06;5054389;28;20043;-66
2022/07/06 05:27:24;;;;;;;8.88;4.18;;;;;;;17.40;54.31;102446.91;5054362;28;20033;-65
2022/07/06 05:29:51;;;;;;;4.20;3.80;;;;;;;17.46;54.21;102449.16;5051872;28;20052;-65
2022/07/06 05:32:18;;;;;;;5.93;4.10;;;;;;;17.54;54.45;102451.28;5052341;28;20048;-66
2022/07/06 05:35:10;;;;;;;6.57;4.13;;;;;;;17.60;54.32;102448.97;5053292;28;20041;-65
2022/07/06 05:37:59;;;;;;;5.50;4.03;;;;;;;17.70;53.84;102452.78;5053050;28;20033;-65
2022/07/06 05:40:26;;;;;;;7.45;4.38;;;;;;;17.76;54.19;102451.44;5052873;28;20062;-66
2022/07/06 05:42:57;;;;;;;8.18;4.88;;;;;;;17.81;54.10;102460.09;5052996;28;20136;-66
2022/07/06 05:45:24;;;;;;;9.52;4.00;;;;;;;17.86;54.10;102451.63;5052754;28;20143;-65
2022/07/06 05:50:38;;;;;;;6.63;3.90;;;;;;;17.98;53.91;102453.41;5053062;28;20114;-66
2022/07/06 05:53:09;;;;;;;6.47;4.18;;;;;;;18.05;54.27;102455.53;5052759;28;20041;-67
2022/07/06 05:55:47;;;;;;;10.27;4.30;;;;;;;18.14;54.07;102467.56;5052550;28;20049;-67
2022/07/06 05:58:14;;;;;;;7.00;4.70;;;;;;;18.21;54.06;102467.94;5053059;28;20037;-67
2022/07/06 06:00:43;;;;;;;6.40;4.45;;;;;;;18.28;54.01;102469.19;5052341;28;20048;-67
2022/07/06 06:03:16;;;;;;;7.57;4.97;;;;;;;18.32;54.31;102467.97;5052068;28;20052;-67
2022/07/06 06:05:44;;;;;;;6.10;4.65;;;;;;;18.36;53.86;102464.03;5051973;28;20045;-67
2022/07/06 06:08:12;;;;;;;9.85;5.50;;;;;;;18.39;54.32;102467.38;5051966;28;20045;-67
2022/07/06 06:10:39;;;;;;;9.90;5.43;;;;;;;18.45;54.45;102470.59;5051992;28;20083;-67
2022/07/06 06:13:13;;;;;;;5.90;4.20;;;;;;;18.54;54.47;102469.88;5051826;28;20068;-67
2022/07/06 06:15:40;;;;;;;6.05;3.97;;;;;;;18.65;54.37;102467.22;5051862;28;20068;-67
2022/07/06 06:18:07;;;;;;;7.88;3.50;;;;;;;18.76;54.40;102463.66;5053004;28;20072;-67
2022/07/06 06:20:34;;;;;;;6.13;3.17;;;;;;;18.85;53.93;102461.06;5053077;28;20568;-67
2022/07/06 06:23:06;;;;;;;6.40;3.40;;;;;;;18.93;53.50;102465.88;5044710;28;20104;-68
2022/07/06 06:25:35;;;;;;;4.43;3.40;;;;;;;19.01;53.65;102467.00;5051635;28;20067;-67
2022/07/06 06:28:04;;;;;;;6.65;3.20;;;;;;;19.13;53.10;102469.72;5047585;28;20037;-68
2022/07/06 06:30:30;;;;;;;8.75;3.20;;;;;;;19.26;53.14;102473.16;5052846;28;20056;-68
2022/07/06 06:33:16;;;;;;;7.18;3.55;;;;;;;19.39;52.97;102462.16;5053011;28;20037;-67
2022/07/06 06:35:51;;;;;;;6.40;3.05;;;;;;;19.61;53.00;102463.00;5052963;28;20128;-66
2022/07/06 06:38:19;;;;;;;3.97;2.72;;;;;;;19.84;52.87;102465.63;5053226;28;20041;-65
2022/07/06 06:40:46;;;;;;;5.57;3.03;;;;;;;20.02;52.33;102463.19;5052557;28;20115;-67
2022/07/06 06:43:14;;;;;;;3.58;2.60;;;;;;;20.14;52.35;102462.19;5052867;28;20087;-67
2022/07/06 06:46:01;;;;;;;6.95;2.50;;;;;;;20.29;51.57;102455.41;5051861;28;20048;-67
2022/07/06 06:48:28;;;;;;;5.22;2.70;;;;;;;20.45;51.83;102457.69;5052729;28;20041;-67
2022/07/06 06:50:54;;;;;;;3.95;2.13;;;;;;;20.62;51.19;102459.81;5051453;28;20041;-68
2022/07/06 06:53:24;;;;;;;5.00;2.42;;;;;;;20.77;51.22;102463.91;5054899;28;20490;-68
2022/07/06 06:55:51;;;;;;;3.17;2.33;;;;;;;20.91;50.54;102459.97;5051722;28;20061;-68
2022/07/06 06:58:17;;;;;;;5.50;2.00;;;;;;;21.00;50.65;102467.34;5051801;28;20486;-68
2022/07/06 07:00:44;;;;;;;4.53;2.10;;;;;;;21.10;50.11;102467.38;5052330;28;20069;-66
2022/07/06 07:03:14;;;;;;;3.63;1.50;;;;;;;21.21;50.02;102472.75;5052342;28;20052;-65
2022/07/06 07:05:41;;;;;;;2.55;1.10;;;;;;;21.28;49.30;102471.22;5051421;28;20033;-66
2022/07/06 07:08:07;;;;;;;2.70;1.10;;;;;;;21.32;49.16;102480.84;5051158;28;20040;-66
2022/07/06 07:10:34;;;;;;;2.42;0.85;;;;;;;21.35;48.63;102469.66;5051848;28;20515;-65
2022/07/06 07:13:05;;;;;;;4.75;1.40;;;;;;;21.43;48.58;102478.00;5052229;28;20052;-65
2022/07/06 07:15:32;;;;;;;3.42;1.63;;;;;;;21.51;48.55;102480.91;5050763;28;20041;-66
2022/07/06 07:17:59;;;;;;;2.35;1.25;;;;;;;21.58;48.12;102475.78;5052193;28;20139;-66
2022/07/06 07:20:29;;;;;;;2.35;1.20;;;;;;;21.67;48.26;102485.84;5051960;28;20068;-66
2022/07/06 07:22:57;;;;;;;1.95;1.00;;;;;;;21.73;47.72;102479.81;5052149;28;20052;-66
2022/07/06 07:25:23;;;;;;;2.70;1.02;;;;;;;21.79;47.57;102479.25;5051845;28;20064;-64
2022/07/06 07:27:50;;;;;;;4.32;1.83;;;;;;;21.86;47.86;102476.81;5052438;28;20152;-64
2022/07/06 07:30:16;;;;;;;2.70;1.80;;;;;;;21.92;47.57;102483.56;5052360;28;20045;-64
2022/07/06 07:32:47;;;;;;;3.65;1.77;;;;;;;21.97;47.18;102476.66;5052009;28;20446;-65
2022/07/06 07:35:14;;;;;;;4.20;1.67;;;;;;;22.03;47.12;102480.72;5050946;28;20422;-65
2022/07/06 07:37:40;;;;;;;3.78;1.67;;;;;;;22.05;46.55;102473.25;5051899;28;20041;-65
2022/07/06 07:40:07;;;;;;;2.00;1.40;;;;;;;22.08;46.99;102472.94;5051726;28;20045;-66
2022/07/06 07:42:38;;;;;;;2.58;1.38;;;;;;;22.13;46.83;102467.91;5051978;28;20048;-65
2022/07/06 07:45:05;;;;;;;3.63;1.52;;;;;;;22.17;46.13;102475.69;5051225;28;20041;-65
2022/07/06 07:47:32;;;;;;;2.58;1.25;;;;;;;22.22;46.56;102475.25;5051064;28;20459;-66
2022/07/06 07:49:58;;;;;;;2.63;1.05;;;;;;;22.35;46.16;102480.44;5050483;28;20041;-65
2022/07/06 07:52:34;;;;;;;3.10;1.40;;;;;;;22.49;46.18;102475.38;5049992;28;20049;-66
2022/07/06 07:55:00;;;;;;;2.80;1.02;;;;;;;22.58;45.91;102478.25;5050899;28;20033;-65
2022/07/06 07:57:47;;;;;;;3.50;1.50;;;;;;;22.63;45.57;102473.19;5051013;28;20044;-66
2022/07/06 08:00:14;;;;;;;3.42;1.30;;;;;;;22.73;45.42;102480.34;5050884;28;20053;-66
2022/07/06 08:02:45;;;;;;;2.95;1.17;;;;;;;22.89;45.66;102471.53;5050852;28;20049;-66
2022/07/06 08:05:13;;;;;;;1.83;1.00;;;;;;;23.04;45.29;102467.31;5050782;28;20072;-66
2022/07/06 08:07:40;;;;;;;2.38;1.10;;;;;;;23.22;45.35;102467.38;5050881;28;20039;-65
2022/07/06 08:10:07;;;;;;;2.13;1.00;;;;;;;23.38;44.90;102463.97;5050512;28;20403;-65
2022/07/06 08:12:38;;;;;;;5.13;0.98;;;;;;;23.51;44.40;102460.84;5050668;28;20041;-66
2022/07/06 08:15:11;;;;;;;2.75;0.80;;;;;;;23.67;44.19;102452.84;5051105;28;20064;-67
2022/07/06 08:17:39;;;;;;;2.67;1.20;;;;;;;23.79;43.92;102457.09;5051102;28;20041;-66
2022/07/06 08:20:06;;;;;;;2.22;0.70;;;;;;;23.98;43.37;102456.94;5052225;28;20075;-66
2022/07/06 08:22:37;;;;;;;1.40;0.57;;;;;;;24.12;43.02;102457.41;5052144;28;20044;-68
2022/07/06 08:25:05;;;;;;;2.58;1.27;;;;;;;24.30;43.00;102458.25;5052180;28;20119;-66
2022/07/06 08:27:31;;;;;;;2.00;0.82;;;;;;;24.45;42.51;102456.66;5052160;28;20064;-67
2022/07/06 08:30:00;;;;;;;1.63;0.65;;;;;;;24.54;41.79;102450.22;5051369;28;20120;-68
2022/07/06 08:32:28;;;;;;;1.95;0.60;;;;;;;24.60;41.59;102455.06;5050077;28;20049;-68
2022/07/06 08:35:15;;;;;;;4.05;0.60;;;;;;;24.66;41.25;102448.94;5050531;28;20067;-66
2022/07/06 08:37:41;;;;;;;1.77;0.60;;;;;;;24.79;41.05;102450.38;5051931;28;20041;-68
2022/07/06 08:40:09;;;;;;;2.15;0.93;;;;;;;24.88;40.98;102449.41;5051331;28;20053;-67
2022/07/06 08:42:37;;;;;;;2.78;0.80;;;;;;;24.90;40.48;102441.84;5051536;28;20045;-67
2022/07/06 08:45:06;;;;;;;2.75;0.80;;;;;;;24.85;40.28;102447.84;5049649;28;20065;-67
2022/07/06 08:47:35;;;;;;;1.50;0.50;;;;;;;24.76;40.18;102446.06;5051344;28;20491;-69
2022/07/06 08:50:03;;;;;;;2.17;0.70;;;;;;;24.73;39.79;102449.16;5051835;28;20041;-67
2022/07/06 08:52:31;;;;;;;1.45;0.60;;;;;;;24.76;39.87;102442.47;5051272;28;20484;-69
2022/07/06 08:54:58;;;;;;;1.00;0.60;;;;;;;24.83;40.02;102449.03;5049663;28;20090;-69
2022/07/06 08:57:26;;;;;;;3.60;0.70;;;;;;;24.92;39.70;102432.41;5050582;28;20055;-70
2022/07/06 08:59:53;;;;;;;2.42;0.50;;;;;;;25.03;39.22;102445.91;5050289;28;20053;-70
2022/07/06 09:02:34;;;;;;;4.03;0.80;;;;;;;25.12;39.14;102438.53;5050292;28;20037;-70
2022/07/06 09:05:03;;;;;;;3.65;0.68;;;;;;;25.25;38.84;102444.44;5053770;28;20415;-70
2022/07/06 09:07:30;;;;;;;6.95;0.80;;;;;;;25.31;38.63;102437.44;5053577;28;20063;-70
2022/07/06 09:10:24;;;;;;;4.43;0.63;;;;;;;25.32;38.49;102442.78;5053949;28;20037;-69
2022/07/06 09:12:52;;;;;;;2.05;0.50;;;;;;;25.28;38.08;102444.13;5053878;28;20047;-70
2022/07/06 09:15:23;;;;;;;1.85;0.40;;;;;;;25.19;37.66;102444.25;5052340;28;20041;-69
2022/07/06 09:17:55;;;;;;;1.83;0.57;;;;;;;25.14;37.67;102444.72;5052961;28;20041;-69
2022/07/06 09:20:21;;;;;;;1.67;0.60;;;;;;;25.19;37.36;102441.50;5053637;28;20045;-69
2022/07/06 09:23:07;;;;;;;1.30;0.50;;;;;;;25.17;37.02;102436.16;5053998;28;20399;-69
2022/07/06 09:25:42;;;;;;;3.50;0.82;;;;;;;25.12;36.72;102432.19;5053095;28;20402;-70
2022/07/06 09:28:09;;;;;;;4.05;0.95;;;;;;;25.09;36.76;102436.13;5053051;28;20491;-69
2022/07/06 09:30:40;;;;;;;1.10;0.57;;;;;;;25.13;36.79;102445.75;5053350;28;20045;-67
2022/07/06 09:33:17;;;;;;;2.60;0.70;;;;;;;25.16;36.41;102441.81;5053497;28;20127;-69
2022/07/06 09:35:45;;;;;;;1.48;0.50;;;;;;;25.18;36.40;102443.38;5053508;28;20041;-69
2022/07/06 09:38:14;;;;;;;5.30;0.80;;;;;;;25.27;36.29;102436.91;5053620;28;20041;-68
2022/07/06 09:40:42;;;;;;;2.20;0.47;;;;;;;25.42;36.16;102433.50;5053142;28;20045;-68
2022/07/06 09:43:18;;;;;;;1.50;0.60;;;;;;;25.54;35.90;102441.28;5053027;28;20045;-68
2022/07/06 09:45:55;;;;;;;1.48;0.70;;;;;;;25.63;35.22;102447.66;5033190;28;20218;-69
2022/07/06 09:48:27;;;;;;;2.15;0.50;;;;;;;25.68;34.98;102441.69;5033390;28;20033;-68
2022/07/06 09:50:59;;;;;;;2.10;0.50;;;;;;;25.73;34.73;102447.53;5033248;28;20057;-68
2022/07/06 09:53:27;;;;;;;3.65;0.60;;;;;;;25.83;35.11;102453.75;5033333;28;20107;-68
2022/07/06 09:55:57;;;;;;;2.13;0.40;;;;;;;25.97;34.88;102448.41;5042789;28;20087;-68
2022/07/06 09:58:25;;;;;;;1.25;0.70;;;;;;;26.17;35.01;102451.72;5035348;28;20403;-67
2022/07/06 10:01:11;;;;;;;1.85;0.60;;;;;;;26.36;34.73;102452.44;5051545;28;20040;-68
2022/07/06 10:03:39;;;;;;;2.53;0.40;;;;;;;26.39;34.04;102457.59;5052742;28;20128;-67
2022/07/06 10:06:06;;;;;;;2.80;0.85;;;;;;;26.34;34.00;102454.50;5051464;28;20414;-68
2022/07/06 10:08:34;;;;;;;1.88;0.50;;;;;;;26.29;33.74;102458.59;5052851;28;20059;-68
2022/07/06 10:11:01;;;;;;;1.00;0.40;;;;;;;26.24;33.86;102450.00;5051756;28;20049;-67
2022/07/06 10:13:32;;;;;;;1.30;0.40;;;;;;;26.17;33.44;102453.59;5052010;28;20041;-67
2022/07/06 10:15:59;;;;;;;1.90;0.40;;;;;;;26.14;33.38;102456.72;5051816;28;20048;-67
2022/07/06 10:18:26;;;;;;;2.63;0.60;;;;;;;26.16;33.50;102451.91;5052664;28;20041;-67
2022/07/06 10:20:54;;;;;;;1.27;0.60;;;;;;;26.21;33.30;102446.72;5052416;28;20507;-68
2022/07/06 10:23:23;;;;;;;2.67;0.50;;;;;;;26.23;33.17;102455.69;5052495;28;20091;-68
2022/07/06 10:25:51;;;;;;;3.17;0.57;;;;;;;26.20;32.66;102445.88;5052409;28;20056;-69
2022/07/06 10:28:19;;;;;;;5.00;0.60;;;;;;;26.18;32.81;102458.09;5051254;28;20045;-68
2022/07/06 10:30:48;;;;;;;2.35;0.50;;;;;;;26.19;33.24;102457.06;5051942;28;20059;-70
2022/07/06 10:33:16;;;;;;;2.22;0.63;;;;;;;26.16;32.95;102457.41;5050950;28;20090;-68
2022/07/06 10:35:44;;;;;;;0.80;0.40;;;;;;;26.14;33.16;102451.19;5052034;28;20049;-67
2022/07/06 10:38:11;;;;;;;1.67;0.50;;;;;;;26.10;32.98;102452.59;5052149;28;20115;-68
2022/07/06 10:41:21;;;;;;;1.15;0.40;;;;;;;26.06;33.29;102451.19;5052053;28;20106;-68
2022/07/06 10:43:35;;;;;;;0.77;0.50;;;;;;;26.03;33.42;102455.16;5049196;28;20049;-70
2022/07/06 10:46:06;;;;;;;1.52;0.70;;;;;;;26.01;33.25;102450.81;5052142;28;20116;-68
2022/07/06 10:48:46;;;;;;;0.95;0.45;;;;;;;26.02;33.32;102445.19;5052080;28;20103;-68
2022/07/06 10:51:40;;;;;;;1.13;0.50;;;;;;;26.07;33.17;102444.66;5051948;28;20491;-68
2022/07/06 10:54:07;;;;;;;4.90;1.17;;;;;;;26.09;33.33;102450.88;5050369;28;20419;-68
2022/07/06 10:56:38;;;;;;;1.23;0.57;;;;;;;26.09;33.22;102445.34;5052141;28;20055;-68
2022/07/06 10:59:11;;;;;;;1.88;0.40;;;;;;;26.10;33.37;102449.81;5052012;28;20048;-69
2022/07/06 11:01:38;;;;;;;3.63;0.57;;;;;;;26.05;33.33;102436.56;5052048;28;20403;-69
2022/07/06 11:04:14;;;;;;;3.03;0.60;;;;;;;26.04;33.79;102442.25;5051936;28;20051;-68
2022/07/06 11:06:42;;;;;;;1.40;0.50;;;;;;;26.04;33.66;102439.50;5051837;28;20148;-68
2022/07/06 11:09:11;;;;;;;1.92;0.57;;;;;;;25.97;33.50;102440.16;5052060;28;20037;-68
2022/07/06 11:11:44;;;;;;;1.75;0.50;;;;;;;25.95;33.39;102452.38;5051276;28;20040;-68
2022/07/06 11:14:21;;;;;;;4.13;0.60;;;;;;;25.96;33.27;102443.94;5052818;28;20380;-68
2022/07/06 11:16:47;;;;;;;4.25;0.70;;;;;;;25.96;33.44;102440.31;5051650;28;20119;-68
2022/07/06 11:19:17;;;;;;;1.63;0.50;;;;;;;26.01;33.26;102435.19;5052055;28;20124;-68
2022/07/06 11:21:48;;;;;;;1.52;0.80;;;;;;;26.08;33.01;102438.13;5051736;28;20044;-68
2022/07/06 11:24:23;;;;;;;4.15;0.90;;;;;;;26.12;32.74;102431.25;5052479;28;20051;-68
2022/07/06 11:26:51;;;;;;;1.35;0.50;;;;;;;26.17;32.77;102437.94;5052237;28;20401;-68
2022/07/06 11:29:22;;;;;;;2.25;0.70;;;;;;;26.20;32.31;102434.84;5051314;28;20407;-67
2022/07/06 11:31:54;;;;;;;1.65;0.50;;;;;;;26.19;32.71;102432.28;5051250;28;20414;-66
2022/07/06 11:34:26;;;;;;;2.05;0.75;;;;;;;26.28;32.63;102428.47;5051835;28;20041;-68
2022/07/06 11:37:04;;;;;;;3.72;0.82;;;;;;;26.43;32.65;102432.28;5051544;28;20052;-67
2022/07/06 11:39:33;;;;;;;2.25;0.63;;;;;;;26.46;32.32;102437.44;5051868;28;20037;-68